St. JULIÀ DE VILATORTA (Osona)





Hora UTC 22:45
Temperatura 8.4 ºC
Humedad 46.0 %
Presión 1008.3 hPa
Pluja 0.1 mm
Velocidad viento 2.0 km/h
Dirección viento SE
Radiación solar 0.0 W/m²

Datos diarios 2024-02-27



Hora UTC (invierno +1h; verano +2h)
Temperatura (ºC) Humedad (%) Presión (hPa) Velocidad viento (km/h) Precipitación (mm) Radiación solar (W/m²)
Hora UTC Aire Humedad Presión Vel. Dir. Vel. Max Dir. Intent. máx 5 min. Rad. Sol.
00:05 3.9 92.3 1001.0 4.8 N 4.8 N 0.0 0.1
00:10 3.8 92.7 1001.0 2.8 NE 6.2 NE 0.0 0.0
00:15 3.7 93.0 1001.1 2.2 NE 5.3 NNE 0.0 0.0
00:20 3.7 93.2 1001.1 1.7 NE 4.0 NE 0.0 0.0
00:25 3.7 93.4 1001.1 2.6 NNE 4.7 N 0.0 0.0
00:30 3.7 93.4 1001.1 1.4 NE 3.1 NE 0.0 0.0
00:35 3.6 93.6 1001.1 2.0 SE 3.7 SSE 0.0 0.0
00:40 3.6 93.7 1001.2 1.4 ENE 2.3 ENE 0.0 0.0
00:45 3.6 93.8 1001.2 2.4 NNE 3.7 NNE 0.0 0.0
00:50 3.5 93.8 1001.2 1.0 N 2.0 NE 0.0 0.0
00:55 3.5 93.9 1001.2 2.0 NE 3.0 ENE 0.0 0.0
01:00 3.5 94.0 1001.2 2.9 NE 4.2 NE 0.0 0.0
01:05 3.5 94.2 1001.3 2.4 SE 4.2 SE 0.0 0.0
01:10 3.5 94.5 1001.3 2.5 SSW 3.9 S 0.0 0.0
01:15 3.5 94.7 1001.3 2.1 SSE 3.5 SE 0.0 0.0
01:20 3.5 94.8 1001.4 2.7 SSE 5.0 SE 0.0 0.0
01:25 3.5 94.8 1001.5 1.3 SSW 2.5 WSW 0.0 0.0
01:30 3.5 94.9 1001.5 1.9 ESE 3.2 SE 0.0 0.0
01:35 3.5 94.9 1001.6 2.0 ESE 2.9 ESE 0.0 0.0
01:40 3.4 95.0 1001.6 1.8 ESE 3.0 ESE 0.0 0.0
01:45 3.5 95.1 1001.7 1.6 SW 2.6 WSW 0.0 0.0
01:50 3.5 95.2 1001.7 1.3 SSE 2.0 SSW 0.0 0.0
01:55 3.4 95.1 1001.7 2.3 S 3.1 SSW 0.0 0.0
02:00 3.4 95.2 1001.8 2.0 SE 3.3 SE 0.0 0.0
02:05 3.3 95.3 1001.7 1.6 SSE 2.8 SE 0.0 0.0
02:10 3.2 95.4 1001.7 2.7 SSE 4.3 SE 0.0 0.0
02:15 3.2 95.5 1001.8 3.5 E 4.7 ENE 0.0 0.0
02:20 3.0 95.6 1001.8 3.2 ESE 5.7 ESE 0.0 0.0
02:25 3.0 95.9 1001.8 2.9 ESE 5.6 E 0.0 0.0
02:30 3.0 95.9 1001.8 4.4 E 7.3 ESE 0.0 0.0
02:35 2.8 95.9 1001.9 3.8 ESE 6.6 ESE 0.0 0.0
02:40 2.7 96.0 1001.9 2.1 SSE 4.3 ESE 0.0 0.0
02:45 2.7 96.2 1002.0 2.8 SSW 5.0 SSW 0.0 0.0
02:50 2.7 96.4 1002.0 1.0 NNE 2.1 ENE 0.0 0.0
02:55 2.7 96.4 1002.1 2.1 E 4.5 E 0.0 0.0
03:00 2.7 96.5 1002.1 2.8 ESE 4.6 E 0.0 0.0
03:05 2.7 96.7 1002.1 1.5 SE 3.7 ESE 0.0 0.0
03:10 2.8 96.8 1002.1 1.6 SE 2.9 SE 0.0 0.0
03:15 2.8 96.8 1002.1 2.9 E 4.1 ESE 0.0 0.0
03:20 2.8 96.8 1002.1 1.4 SE 3.2 SE 0.0 0.0
03:25 2.8 96.8 1002.2 1.6 SE 2.6 ESE 0.0 0.0
03:30 2.8 96.8 1002.3 3.0 E 4.1 E 0.0 0.0
03:35 2.7 96.8 1002.3 1.6 SSE 4.3 E 0.0 0.0
03:40 2.8 96.9 1002.4 1.5 SE 2.9 SE 0.0 0.0
03:45 2.8 96.9 1002.4 0.8 NW 1.5 WNW 0.0 0.0
03:50 2.8 96.9 1002.5 1.2 NW 1.7 N 0.0 0.0
03:55 2.9 96.9 1002.5 1.7 S 2.7 SE 0.0 0.0
04:00 2.9 97.0 1002.5 2.0 ENE 3.4 NNE 0.0 0.0
04:05 3.0 97.0 1002.5 1.8 ENE 2.8 ENE 0.0 0.0
04:10 3.0 97.0 1002.6 2.7 E 4.2 ENE 0.0 0.0
04:15 3.0 96.9 1002.7 2.4 ESE 4.0 SE 0.0 0.0
04:20 3.1 96.9 1002.7 1.8 ESE 3.4 E 0.0 0.0
04:25 3.0 96.9 1002.8 2.4 ENE 4.6 E 0.0 0.0
04:30 3.0 96.8 1002.8 3.0 ESE 4.8 ESE 0.0 0.0
04:35 2.9 96.8 1002.8 1.5 S 2.5 S 0.0 0.0
04:40 2.8 96.8 1002.9 2.5 SE 3.9 SE 0.0 0.0
04:45 2.9 97.0 1002.9 3.0 SSE 4.4 SE 0.0 0.0
04:50 2.9 96.9 1003.0 2.4 SSE 4.2 SE 0.0 0.0
04:55 2.7 96.7 1003.0 1.3 NE 2.7 NE 0.1 0.0
05:00 2.6 96.8 1003.1 1.8 NE 3.1 NE 0.0 0.0
05:05 2.5 97.0 1003.2 1.8 SSW 2.6 S 0.0 0.0
05:10 2.4 97.0 1003.2 2.6 SE 3.9 SE 0.0 0.0
05:15 2.5 97.2 1003.2 1.6 ESE 2.7 ESE 0.0 0.0
05:20 2.4 97.2 1003.2 2.4 ESE 4.1 E 0.0 0.0
05:25 2.4 97.3 1003.3 2.9 ESE 5.2 E 0.0 0.0
05:30 2.3 97.3 1003.3 3.0 SSE 4.9 SE 0.0 0.0
05:35 2.3 97.4 1003.3 1.2 SE 2.0 SE 0.0 0.0
05:40 2.3 97.5 1003.3 1.1 ENE 1.7 NE 0.0 0.0
05:45 2.3 97.5 1003.4 1.0 SSE 2.1 SSE 0.0 0.0
05:50 2.3 97.5 1003.5 1.2 SSW 2.7 S 0.0 0.0
05:55 2.3 97.7 1003.5 0.8 SW 2.8 W 0.0 0.0
06:00 2.5 97.8 1003.6 1.2 SSW 2.3 SE 0.0 0.1
06:05 2.6 97.9 1003.6 1.2 SW 2.4 WSW 0.0 0.0
06:10 2.6 97.8 1003.6 1.8 S 2.7 SSE 0.0 0.0
06:15 2.6 97.8 1003.7 1.0 WSW 2.3 W 0.0 0.0
06:20 2.7 97.8 1003.7 0.8 NW 2.3 WNW 0.0 0.0
06:25 2.8 97.8 1003.8 2.4 WNW 5.4 WNW 0.0 0.2
06:30 2.9 97.9 1003.9 3.0 WNW 6.3 W 0.0 0.6
06:35 2.9 97.8 1003.9 3.8 NW 6.9 WNW 0.0 0.9
06:40 3.0 97.8 1004.0 3.7 NNW 5.5 NNW 0.0 1.6
06:45 3.0 97.6 1004.0 4.1 N 5.6 0.0 3.0
06:50 3.0 97.5 1004.0 4.3 NNW 5.9 NNW 0.0 4.6
06:55 3.0 97.5 1004.1 2.9 NNW 5.8 NW 0.0 6.5
07:00 3.1 97.4 1004.1 2.3 NW 4.3 NW 0.0 8.5
07:05 3.1 97.3 1004.2 2.0 NNW 4.6 NNW 0.0 8.8
07:10 3.1 97.1 1004.3 3.9 NNW 5.8 WNW 0.0 9.6
07:15 3.1 97.0 1004.4 2.6 NNW 4.1 WNW 0.0 11.1
07:20 3.2 96.9 1004.5 3.2 N 4.9 N 0.0 13.4
07:25 3.2 96.8 1004.5 3.7 NNW 5.8 NW 0.0 16.3
07:30 3.2 96.7 1004.6 3.4 NW 6.6 WNW 0.0 17.8
07:35 3.2 96.5 1004.6 1.7 WNW 3.4 WNW 0.0 24.0
07:40 3.2 96.5 1004.6 1.8 SW 3.2 SW 0.0 35.5
07:45 3.3 96.5 1004.6 1.6 W 3.6 N 0.0 35.5
07:50 3.3 96.1 1004.7 1.9 N 4.1 N 0.0 40.5
07:55 3.3 95.9 1004.8 2.1 NW 3.9 NW 0.0 44.5
08:00 3.4 95.9 1004.7 2.9 W 5.5 SW 0.0 42.3
08:05 3.4 95.6 1004.9 4.1 NNW 6.5 NNW 0.0 43.4
08:10 3.4 95.3 1004.9 3.0 NNW 6.5 N 0.0 50.1
08:15 3.4 94.9 1004.9 2.6 NE 6.3 NE 0.0 66.0
08:20 3.4 94.5 1005.0 2.8 N 6.4 NNW 0.0 64.9
08:25 3.5 94.3 1005.0 1.4 SSW 3.2 S 0.0 72.0
08:30 3.7 94.2 1005.0 2.5 S 4.0 S 0.0 71.4
08:35 3.8 93.6 1005.0 4.4 SW 8.2 SW 0.0 88.8
08:40 3.8 93.1 1005.1 2.5 SSW 4.8 SSW 0.0 74.2
08:45 3.8 92.5 1005.2 3.3 SW 6.3 SW 0.0 78.5
08:50 3.8 92.2 1005.3 1.6 SSW 4.2 SW 0.0 78.9
08:55 3.9 92.1 1005.2 3.6 WSW 6.7 WSW 0.0 100.8
09:00 4.0 91.5 1005.3 2.9 SSW 4.9 WSW 0.0 102.0
09:05 4.1 91.3 1005.3 3.3 SW 5.6 SW 0.0 98.4
09:10 4.1 91.0 1005.4 4.1 WSW 6.9 W 0.0 110.5
09:15 4.0 90.3 1005.6 5.5 WNW 9.0 W 0.0 96.7
09:20 3.9 90.4 1005.6 3.8 NE 7.5 ENE 0.0 96.0
09:25 3.9 90.9 1005.7 3.0 NE 5.3 ENE 0.0 130.5
09:30 4.0 91.3 1005.7 3.0 WNW 5.5 NW 0.0 144.0
09:35 4.1 90.7 1005.8 3.0 NNW 9.0 NW 0.0 126.4
09:40 4.2 90.4 1005.8 2.9 NNW 4.9 N 0.0 115.8
09:45 4.2 90.3 1005.8 3.6 NNW 7.9 NW 0.0 143.7
09:50 4.2 90.3 1005.9 3.1 WNW 5.4 NNW 0.0 178.9
09:55 4.4 90.5 1006.0 2.9 WNW 6.1 WNW 0.0 168.5
10:00 4.5 89.4 1006.1 3.8 N 6.6 NNE 0.0 157.9
10:05 4.4 89.1 1006.2 5.3 N 9.0 N 0.0 154.9
10:10 4.3 89.6 1006.3 6.9 N 10.0 NNE 0.0 157.1
10:15 4.3 89.5 1006.3 2.8 E 6.3 NNE 0.0 187.4
10:20 4.5 89.3 1006.1 3.1 WSW 6.5 SSE 0.0 326.1
10:25 4.8 88.4 1006.3 6.1 NNW 12.5 NNW 0.0 254.0
10:30 4.6 87.6 1006.3 6.1 NNW 10.5 NNW 0.0 256.9
10:35 4.5 87.8 1006.4 3.6 N 5.9 NE 0.0 299.7
10:40 4.8 87.8 1006.3 3.8 NW 6.4 NNW 0.0 354.8
10:45 5.0 87.2 1006.3 3.6 WSW 6.9 W 0.0 522.2
10:50 5.7 85.1 1006.3 4.5 WSW 8.8 SW 0.0 765.6
10:55 6.0 83.2 1006.3 4.5 WSW 7.7 W 0.0 662.7
11:00 6.3 81.7 1006.4 7.7 NNW 13.6 NNW 0.0 739.7
11:05 6.2 81.1 1006.3 6.9 NNE 12.3 NNE 0.0 665.4
11:10 6.1 81.2 1006.4 6.2 N 10.4 N 0.0 634.2
11:15 6.2 80.7 1006.3 4.5 NNW 8.6 NW 0.0 647.6
11:20 6.3 80.1 1006.4 5.1 N 10.0 NNW 0.0 658.2
11:25 6.6 79.3 1006.3 3.7 NE 7.2 NNE 0.0 662.8
11:30 7.1 77.4 1006.3 3.4 N 8.7 NNW 0.0 668.4
11:35 7.4 74.5 1006.2 3.7 NNW 8.2 WNW 0.0 670.7
11:40 7.7 74.1 1006.2 1.7 NNE 4.8 NW 0.0 669.4
11:45 8.4 71.2 1006.2 3.1 SSE 6.1 S 0.0 663.3
11:50 9.0 67.8 1006.2 4.0 S 7.4 S 0.0 663.0
11:55 9.5 66.1 1006.3 3.2 S 6.9 S 0.0 665.7
12:00 9.7 64.9 1006.3 3.6 N 9.9 NNW 0.0 672.0
12:05 9.4 65.9 1006.2 4.1 N 9.0 NNW 0.0 679.7
12:10 9.2 66.0 1006.2 3.0 N 7.2 N 0.0 678.5
12:15 9.3 64.7 1006.1 2.8 N 6.2 0.0 673.7
12:20 9.9 62.1 1006.1 2.4 W 5.5 W 0.0 675.5
12:25 10.3 61.6 1006.1 3.6 W 7.1 SSW 0.0 674.2
12:30 10.9 59.9 1006.0 3.3 SW 6.3 S 0.0 666.0
12:35 11.4 58.0 1006.0 3.1 WSW 8.0 WSW 0.0 666.2
12:40 11.6 54.8 1006.0 3.2 SSW 6.9 SW 0.0 660.9
12:45 12.0 52.3 1005.9 5.6 SSW 10.2 SSW 0.0 657.3
12:50 12.3 51.3 1005.9 5.9 SSW 9.5 SSW 0.0 650.7
12:55 12.5 51.0 1005.8 4.6 S 7.6 SSW 0.0 657.9
13:00 12.6 49.9 1005.7 4.0 SSW 8.4 W 0.0 658.9
13:05 12.6 50.4 1005.7 4.7 NW 11.8 NW 0.0 665.2
13:10 12.4 49.5 1005.6 5.2 WSW 11.4 NNW 0.0 608.4
13:15 12.8 49.2 1005.6 4.7 W 8.3 NW 0.0 678.3
13:20 13.2 46.4 1005.6 5.9 SSW 10.2 SSW 0.0 694.0
13:25 13.8 43.9 1005.6 5.9 SSW 11.4 SSW 0.0 675.8
13:30 14.0 42.7 1005.6 3.7 WSW 6.4 WNW 0.0 350.5
13:35 13.8 42.1 1005.6 5.0 S 9.0 SSW 0.0 154.8
13:40 13.4 42.3 1005.6 3.4 SSW 6.3 S 0.0 125.5
13:45 13.2 43.4 1005.5 2.1 SSE 3.8 SSW 0.0 311.0
13:50 13.5 42.3 1005.5 2.8 S 6.0 S 0.0 253.4
13:55 13.7 41.7 1005.5 3.7 SSW 7.3 S 0.0 529.3
14:00 14.4 38.3 1005.5 3.9 SW 6.7 SSW 0.0 216.4
14:05 13.9 38.6 1005.5 3.1 SSW 7.2 S 0.0 285.8
14:10 13.7 39.4 1005.5 2.8 SSW 7.9 SSW 0.0 551.4
14:15 14.1 38.8 1005.5 1.8 E 5.0 SSW 0.0 559.4
14:20 14.3 36.9 1005.5 2.7 WNW 10.1 NNW 0.0 397.2
14:25 13.9 35.6 1005.5 5.0 NW 11.5 WNW 0.0 258.8
14:30 13.6 37.2 1005.5 7.1 N 11.2 N 0.0 170.2
14:35 13.2 38.9 1005.5 5.3 N 8.4 NE 0.0 150.4
14:40 13.3 38.9 1005.5 5.9 NNE 10.0 NNE 0.0 155.0
14:45 13.3 37.8 1005.5 4.1 NE 9.8 NNE 0.0 159.2
14:50 13.3 39.0 1005.6 7.0 NNE 10.9 NNE 0.0 169.7
14:55 13.3 37.7 1005.6 5.8 N 10.3 N 0.0 328.1
15:00 13.5 36.2 1005.6 2.7 NNW 6.5 WNW 0.0 274.5
15:05 13.7 35.0 1005.6 7.4 NNE 12.6 NNE 0.0 217.6
15:10 13.8 34.5 1005.6 6.9 N 13.5 NNW 0.0 240.6
15:15 13.7 33.0 1005.6 7.7 N 11.6 NNW 0.0 139.6
15:20 13.6 31.8 1005.7 16.3 N 35.1 N 0.0 111.4
15:25 13.3 28.2 1005.7 23.2 NNW 40.8 N 0.0 119.1
15:30 12.9 31.9 1005.9 19.7 NNW 36.5 N 0.0 132.9
15:35 12.5 31.5 1005.9 15.9 NW 34.9 NW 0.0 99.8
15:40 12.4 30.0 1006.0 19.5 NW 38.7 NW 0.0 120.9
15:45 12.2 29.9 1006.0 17.2 NW 43.3 NW 0.0 136.6
15:50 12.2 29.8 1006.0 19.2 NNW 35.1 NW 0.0 160.1
15:55 12.3 29.8 1006.0 19.0 NNW 37.8 NNW 0.0 173.5
16:00 12.4 29.4 1006.1 19.3 NNW 33.6 NNW 0.0 201.2
16:05 12.6 29.6 1006.1 16.3 NNW 31.7 N 0.0 190.9
16:10 12.7 29.6 1006.1 16.3 NNW 29.6 NNW 0.0 161.0
16:15 12.6 28.8 1006.0 19.0 NW 33.2 NNW 0.0 141.5
16:20 12.3 29.3 1006.1 18.8 NNW 34.8 NNW 0.0 105.3
16:25 12.1 29.3 1006.0 16.6 NNW 27.4 NW 0.0 89.6
16:30 12.0 29.7 1006.1 15.7 NNW 24.7 NNW 0.0 76.4
16:35 11.9 30.3 1006.2 14.6 NNW 25.7 NNW 0.0 66.9
16:40 11.8 30.8 1006.3 13.0 NNW 22.6 NNW 0.0 55.5
16:45 11.7 30.4 1006.4 16.5 NNW 28.0 NNW 0.0 43.4
16:50 11.6 30.9 1006.4 10.4 NNW 21.3 NNW 0.0 32.8
16:55 11.5 31.2 1006.4 10.6 NNW 19.8 NNW 0.0 24.6
17:00 11.4 31.5 1006.4 9.9 NNW 17.0 NW 0.0 18.4
17:05 11.3 31.6 1006.4 11.0 NNW 17.7 NNW 0.0 13.9
17:10 11.2 31.8 1006.4 7.9 NW 16.8 NW 0.0 11.0
17:15 11.2 32.4 1006.5 6.1 NNW 12.0 NNW 0.0 8.7
17:20 11.0 32.8 1006.5 3.7 NW 10.5 WNW 0.0 5.9
17:25 10.9 33.2 1006.4 3.8 NNW 7.2 NNW 0.0 4.1
17:30 10.7 34.2 1006.4 4.5 NNW 8.1 NW 0.0 2.8
17:35 10.5 35.0 1006.5 5.3 NNW 9.1 NNW 0.0 3.1
17:40 10.5 34.5 1006.5 5.9 NW 10.5 NW 0.0 5.9
17:45 10.6 33.4 1006.6 7.3 NW 13.5 NW 0.0 2.3
17:50 10.7 32.4 1006.7 6.2 NW 12.6 NW 0.0 0.1
17:55 10.8 31.9 1006.8 4.4 WNW 11.9 WNW 0.0 0.0
18:00 10.7 31.9 1006.9 2.2 WNW 6.1 W 0.0 0.0
18:05 10.7 31.4 1007.0 3.6 W 9.9 W 0.0 0.3
18:10 10.7 32.3 1007.1 1.5 SSE 4.0 SE 0.0 0.1
18:15 10.5 34.0 1007.0 2.6 SSE 4.9 SSE 0.0 0.0
18:20 10.2 37.4 1007.1 3.9 ESE 5.9 SSE 0.0 0.0
18:25 9.9 40.7 1007.0 3.6 SSE 8.3 SSE 0.0 0.0
18:30 9.7 41.2 1007.0 3.8 E 5.7 E 0.0 0.0
18:35 9.5 41.3 1007.1 3.1 ENE 9.1 E 0.0 0.0
18:40 9.6 39.5 1007.1 2.3 SE 3.6 SE 0.0 0.1
18:45 9.5 41.8 1007.1 2.7 ESE 6.0 ESE 0.0 0.0
18:50 9.2 41.5 1007.1 2.6 E 5.8 ESE 0.0 0.0
18:55 9.0 43.0 1007.2 4.1 NE 8.5 N 0.0 0.1
19:00 8.8 42.4 1007.2 4.2 E 6.4 E 0.0 0.4
19:05 8.8 41.8 1007.3 4.3 E 6.5 ESE 0.0 0.4
19:10 8.8 42.7 1007.4 3.8 NE 6.3 E 0.0 0.4
19:15 8.9 42.3 1007.5 3.5 NE 6.4 NE 0.0 0.5
19:20 9.0 40.1 1007.6 2.6 ENE 6.4 ENE 0.0 0.9
19:25 9.1 40.6 1007.6 2.6 NNE 5.8 NE 0.0 0.3
19:30 9.0 39.8 1007.7 3.6 NNE 5.4 NE 0.0 0.6
19:35 9.1 39.6 1007.7 2.6 ENE 5.0 NE 0.0 0.5
19:40 9.2 37.9 1007.8 3.9 NE 6.3 NNE 0.0 0.6
19:45 9.3 38.0 1007.7 3.0 ENE 5.4 NE 0.0 0.4
19:50 9.2 44.9 1007.7 1.3 W 3.6 S 0.0 0.0
19:55 8.9 47.3 1007.6 2.0 WSW 6.8 WNW 0.0 0.0
20:00 8.7 45.0 1007.7 2.3 NW 6.1 NW 0.0 0.4
20:05 8.7 46.1 1007.8 2.9 NW 6.2 N 0.0 0.4
20:10 8.6 46.7 1007.9 3.9 NW 9.8 NW 0.0 0.4
20:15 9.0 40.9 1007.9 5.2 NNW 8.9 NNW 0.0 0.9
20:20 9.2 40.6 1007.9 4.6 NNE 7.7 NNE 0.0 0.3
20:25 9.3 39.9 1008.0 4.9 NNE 10.0 NNE 0.0 0.3
20:30 9.3 39.7 1008.0 4.8 NNE 10.0 N 0.0 0.1
20:35 9.4 38.4 1008.0 6.9 N 13.1 NNE 0.0 0.2
20:40 9.7 37.7 1008.1 7.6 NNW 13.6 NNW 0.0 0.1
20:45 9.7 38.4 1008.1 5.6 N 11.3 N 0.0 0.0
20:50 9.7 37.9 1008.2 5.0 NNW 9.4 NNW 0.0 0.0
20:55 9.7 37.9 1008.3 5.5 NNW 12.1 NNW 0.0 0.1
21:00 9.7 37.2 1008.2 7.0 NNW 11.7 NNW 0.0 0.0
21:05 9.8 37.0 1008.2 5.8 NNW 12.4 NNW 0.0 0.0
21:10 9.7 37.2 1008.2 5.5 NW 11.9 NNW 0.0 0.0
21:15 9.6 37.6 1008.2 5.0 NNW 11.6 NE 0.0 0.0
21:20 9.5 37.1 1008.3 5.3 NNW 11.7 N 0.0 0.0
21:25 9.5 36.7 1008.2 6.5 NNE 12.9 NNW 0.0 0.0
21:30 9.4 38.0 1008.3 3.0 NE 9.2 NNE 0.0 0.0
21:35 9.3 38.7 1008.3 3.1 NW 6.7 NNW 0.0 0.0
21:40 9.2 40.0 1008.4 2.8 N 5.4 NE 0.0 0.0
21:45 9.1 38.6 1008.5 9.4 NNW 17.8 NNW 0.0 0.1
21:50 9.3 37.4 1008.5 8.6 NNW 14.3 NNW 0.0 0.0
21:55 9.4 36.7 1008.5 4.8 NW 9.1 NNW 0.0 0.0
22:00 9.3 37.3 1008.5 3.4 NNW 7.3 NNW 0.0 0.0
22:05 9.2 37.4 1008.6 8.3 NNW 14.8 NNW 0.0 0.1
22:10 9.4 36.6 1008.6 7.8 NNW 15.1 NNW 0.0 0.1
22:15 9.4 36.6 1008.5 4.7 NW 9.5 NNW 0.0 0.0
22:20 9.3 37.1 1008.5 2.6 W 5.9 WSW 0.0 0.0
22:25 9.2 39.2 1008.4 2.1 S 3.7 S 0.0 0.0
22:30 8.9 43.8 1008.4 3.5 SSE 6.7 W 0.0 0.0
22:35 8.7 43.1 1008.3 1.9 S 6.2 SE 0.0 0.0
22:40 8.6 44.0 1008.4 3.1 SSE 5.1 SE 0.0 0.0
22:45 8.4 46.0 1008.3 2.0 SE 3.2 SE 0.0 0.0
Máxima 14.6 97.9 1008.6 23.2 NNW 43.3 NW 0.1 765.6
Mínima 2.2 28.2 1001.0
Total 0.1